sensor_id;sensor_type;location;lat;lon;timestamp;P1;durP1;ratioP1;P2;durP2;ratioP2
29688;SDS011;16600;47.444;8.334;2022-12-18T00:01:38;52.78;;;39.55;;
29688;SDS011;16600;47.444;8.334;2022-12-18T00:04:05;51.22;;;37.03;;
29688;SDS011;16600;47.444;8.334;2022-12-18T00:06:31;58.15;;;39.85;;
29688;SDS011;16600;47.444;8.334;2022-12-18T00:09:00;55.97;;;38.65;;
29688;SDS011;16600;47.444;8.334;2022-12-18T00:11:28;49.95;;;35.80;;
29688;SDS011;16600;47.444;8.334;2022-12-18T00:13:54;55.22;;;38.50;;
29688;SDS011;16600;47.444;8.334;2022-12-18T00:16:22;53.85;;;38.63;;
29688;SDS011;16600;47.444;8.334;2022-12-18T00:18:48;67.22;;;44.70;;
29688;SDS011;16600;47.444;8.334;2022-12-18T00:21:15;57.38;;;39.63;;
29688;SDS011;16600;47.444;8.334;2022-12-18T00:23:41;49.03;;;38.22;;
29688;SDS011;16600;47.444;8.334;2022-12-18T00:26:11;54.88;;;38.63;;
29688;SDS011;16600;47.444;8.334;2022-12-18T00:28:40;48.83;;;38.10;;
29688;SDS011;16600;47.444;8.334;2022-12-18T00:31:12;52.33;;;38.88;;
29688;SDS011;16600;47.444;8.334;2022-12-18T00:33:41;55.72;;;37.55;;
29688;SDS011;16600;47.444;8.334;2022-12-18T00:36:14;56.45;;;39.20;;
29688;SDS011;16600;47.444;8.334;2022-12-18T00:38:41;52.30;;;39.60;;
29688;SDS011;16600;47.444;8.334;2022-12-18T00:41:07;51.50;;;39.22;;
29688;SDS011;16600;47.444;8.334;2022-12-18T00:43:35;52.00;;;38.88;;
29688;SDS011;16600;47.444;8.334;2022-12-18T00:46:01;50.67;;;37.33;;
29688;SDS011;16600;47.444;8.334;2022-12-18T00:48:31;52.15;;;39.45;;
29688;SDS011;16600;47.444;8.334;2022-12-18T00:51:00;58.00;;;40.72;;
29688;SDS011;16600;47.444;8.334;2022-12-18T00:53:26;54.47;;;41.65;;
29688;SDS011;16600;47.444;8.334;2022-12-18T00:55:56;56.88;;;43.53;;
29688;SDS011;16600;47.444;8.334;2022-12-18T00:58:22;56.90;;;45.20;;
29688;SDS011;16600;47.444;8.334;2022-12-18T01:00:48;65.15;;;45.50;;
29688;SDS011;16600;47.444;8.334;2022-12-18T01:03:14;58.10;;;43.75;;
29688;SDS011;16600;47.444;8.334;2022-12-18T01:05:43;57.70;;;43.35;;
29688;SDS011;16600;47.444;8.334;2022-12-18T01:08:10;59.85;;;43.60;;
29688;SDS011;16600;47.444;8.334;2022-12-18T01:10:42;64.63;;;43.63;;
29688;SDS011;16600;47.444;8.334;2022-12-18T01:15:34;54.50;;;41.13;;
29688;SDS011;16600;47.444;8.334;2022-12-18T01:18:00;58.28;;;42.55;;
29688;SDS011;16600;47.444;8.334;2022-12-18T01:20:26;59.50;;;41.70;;
29688;SDS011;16600;47.444;8.334;2022-12-18T01:22:52;60.58;;;43.88;;
29688;SDS011;16600;47.444;8.334;2022-12-18T01:25:18;58.42;;;42.70;;
29688;SDS011;16600;47.444;8.334;2022-12-18T01:27:44;55.50;;;42.63;;
29688;SDS011;16600;47.444;8.334;2022-12-18T01:30:13;59.80;;;43.60;;
29688;SDS011;16600;47.444;8.334;2022-12-18T01:32:39;59.75;;;42.80;;
29688;SDS011;16600;47.444;8.334;2022-12-18T01:35:05;57.35;;;44.28;;
29688;SDS011;16600;47.444;8.334;2022-12-18T01:37:34;64.32;;;45.47;;
29688;SDS011;16600;47.444;8.334;2022-12-18T01:40:00;60.30;;;45.65;;
29688;SDS011;16600;47.444;8.334;2022-12-18T01:50:05;69.40;;;45.33;;
29688;SDS011;16600;47.444;8.334;2022-12-18T01:52:31;65.45;;;45.88;;
29688;SDS011;16600;47.444;8.334;2022-12-18T01:54:59;65.57;;;48.47;;
29688;SDS011;16600;47.444;8.334;2022-12-18T01:57:26;65.47;;;46.63;;
29688;SDS011;16600;47.444;8.334;2022-12-18T01:59:53;64.28;;;46.45;;
29688;SDS011;16600;47.444;8.334;2022-12-18T02:02:20;60.08;;;45.42;;
29688;SDS011;16600;47.444;8.334;2022-12-18T02:04:46;67.75;;;44.92;;
29688;SDS011;16600;47.444;8.334;2022-12-18T02:07:28;57.80;;;44.90;;
29688;SDS011;16600;47.444;8.334;2022-12-18T02:10:15;69.30;;;47.78;;
29688;SDS011;16600;47.444;8.334;2022-12-18T02:12:45;61.13;;;46.35;;
29688;SDS011;16600;47.444;8.334;2022-12-18T02:16:00;62.13;;;45.45;;
29688;SDS011;16600;47.444;8.334;2022-12-18T02:21:10;57.85;;;43.58;;
29688;SDS011;16600;47.444;8.334;2022-12-18T02:26:18;62.95;;;47.35;;
29688;SDS011;16600;47.444;8.334;2022-12-18T02:28:56;63.33;;;44.50;;
29688;SDS011;16600;47.444;8.334;2022-12-18T02:31:27;60.67;;;44.78;;
29688;SDS011;16600;47.444;8.334;2022-12-18T02:33:55;67.63;;;46.83;;
29688;SDS011;16600;47.444;8.334;2022-12-18T02:36:22;74.40;;;50.50;;
29688;SDS011;16600;47.444;8.334;2022-12-18T02:38:48;65.75;;;45.97;;
29688;SDS011;16600;47.444;8.334;2022-12-18T02:41:16;66.78;;;46.50;;
29688;SDS011;16600;47.444;8.334;2022-12-18T02:43:49;66.68;;;46.47;;
29688;SDS011;16600;47.444;8.334;2022-12-18T02:46:27;64.93;;;46.75;;
29688;SDS011;16600;47.444;8.334;2022-12-18T02:48:57;63.10;;;45.88;;
29688;SDS011;16600;47.444;8.334;2022-12-18T02:51:36;69.85;;;49.35;;
29688;SDS011;16600;47.444;8.334;2022-12-18T02:54:11;65.18;;;49.08;;
29688;SDS011;16600;47.444;8.334;2022-12-18T02:56:49;69.95;;;48.83;;
29688;SDS011;16600;47.444;8.334;2022-12-18T02:59:19;66.13;;;47.92;;
29688;SDS011;16600;47.444;8.334;2022-12-18T03:02:06;66.25;;;49.00;;
29688;SDS011;16600;47.444;8.334;2022-12-18T03:04:36;70.15;;;49.15;;
29688;SDS011;16600;47.444;8.334;2022-12-18T03:07:08;73.38;;;50.83;;
29688;SDS011;16600;47.444;8.334;2022-12-18T03:09:40;71.00;;;50.22;;
29688;SDS011;16600;47.444;8.334;2022-12-18T03:12:19;67.68;;;48.30;;
29688;SDS011;16600;47.444;8.334;2022-12-18T03:14:54;78.20;;;48.92;;
29688;SDS011;16600;47.444;8.334;2022-12-18T03:17:23;75.47;;;47.10;;
29688;SDS011;16600;47.444;8.334;2022-12-18T03:19:51;75.45;;;47.90;;
29688;SDS011;16600;47.444;8.334;2022-12-18T03:22:19;62.55;;;46.70;;
29688;SDS011;16600;47.444;8.334;2022-12-18T03:24:50;63.10;;;48.13;;
29688;SDS011;16600;47.444;8.334;2022-12-18T03:27:17;61.90;;;45.15;;
29688;SDS011;16600;47.444;8.334;2022-12-18T03:29:52;64.97;;;48.08;;
29688;SDS011;16600;47.444;8.334;2022-12-18T03:32:28;66.60;;;46.83;;
29688;SDS011;16600;47.444;8.334;2022-12-18T03:34:58;70.68;;;48.83;;
29688;SDS011;16600;47.444;8.334;2022-12-18T03:37:29;71.65;;;49.72;;
29688;SDS011;16600;47.444;8.334;2022-12-18T03:39:55;63.67;;;48.70;;
29688;SDS011;16600;47.444;8.334;2022-12-18T03:45:02;77.07;;;50.83;;
29688;SDS011;16600;47.444;8.334;2022-12-18T03:47:52;64.40;;;47.78;;
29688;SDS011;16600;47.444;8.334;2022-12-18T03:55:34;72.55;;;50.78;;
29688;SDS011;16600;47.444;8.334;2022-12-18T03:58:03;73.50;;;51.65;;
29688;SDS011;16600;47.444;8.334;2022-12-18T04:00:40;71.57;;;50.85;;
29688;SDS011;16600;47.444;8.334;2022-12-18T04:03:10;69.25;;;48.25;;
29688;SDS011;16600;47.444;8.334;2022-12-18T04:05:43;72.70;;;52.25;;
29688;SDS011;16600;47.444;8.334;2022-12-18T04:08:11;74.32;;;51.30;;
29688;SDS011;16600;47.444;8.334;2022-12-18T04:10:42;65.88;;;47.15;;
29688;SDS011;16600;47.444;8.334;2022-12-18T04:13:08;71.97;;;46.78;;
29688;SDS011;16600;47.444;8.334;2022-12-18T04:15:36;75.53;;;50.22;;
29688;SDS011;16600;47.444;8.334;2022-12-18T04:18:05;75.43;;;50.67;;
29688;SDS011;16600;47.444;8.334;2022-12-18T04:20:38;68.93;;;49.78;;
29688;SDS011;16600;47.444;8.334;2022-12-18T04:23:04;70.75;;;48.35;;
29688;SDS011;16600;47.444;8.334;2022-12-18T04:25:31;71.40;;;50.45;;
29688;SDS011;16600;47.444;8.334;2022-12-18T04:28:20;87.28;;;53.15;;
29688;SDS011;16600;47.444;8.334;2022-12-18T04:30:46;76.72;;;52.70;;
29688;SDS011;16600;47.444;8.334;2022-12-18T04:33:14;76.88;;;50.85;;
29688;SDS011;16600;47.444;8.334;2022-12-18T04:35:43;75.13;;;49.35;;
29688;SDS011;16600;47.444;8.334;2022-12-18T04:38:10;81.25;;;49.40;;
29688;SDS011;16600;47.444;8.334;2022-12-18T04:40:37;71.78;;;48.80;;
29688;SDS011;16600;47.444;8.334;2022-12-18T04:43:10;76.20;;;50.63;;
29688;SDS011;16600;47.444;8.334;2022-12-18T04:45:38;86.03;;;53.10;;
29688;SDS011;16600;47.444;8.334;2022-12-18T04:48:04;76.50;;;51.05;;
29688;SDS011;16600;47.444;8.334;2022-12-18T04:52:58;70.50;;;48.83;;
29688;SDS011;16600;47.444;8.334;2022-12-18T04:55:24;70.18;;;50.80;;
29688;SDS011;16600;47.444;8.334;2022-12-18T04:57:50;71.70;;;48.83;;
29688;SDS011;16600;47.444;8.334;2022-12-18T05:03:02;76.30;;;50.73;;
29688;SDS011;16600;47.444;8.334;2022-12-18T05:05:29;80.05;;;52.25;;
29688;SDS011;16600;47.444;8.334;2022-12-18T05:07:55;77.53;;;51.28;;
29688;SDS011;16600;47.444;8.334;2022-12-18T05:12:46;68.22;;;48.78;;
29688;SDS011;16600;47.444;8.334;2022-12-18T05:15:33;71.22;;;48.25;;
29688;SDS011;16600;47.444;8.334;2022-12-18T05:17:59;68.68;;;48.15;;
29688;SDS011;16600;47.444;8.334;2022-12-18T05:20:25;69.15;;;50.50;;
29688;SDS011;16600;47.444;8.334;2022-12-18T05:22:51;76.07;;;52.25;;
29688;SDS011;16600;47.444;8.334;2022-12-18T05:25:18;81.55;;;52.13;;
29688;SDS011;16600;47.444;8.334;2022-12-18T05:27:44;69.72;;;49.42;;
29688;SDS011;16600;47.444;8.334;2022-12-18T05:32:36;75.80;;;50.05;;
29688;SDS011;16600;47.444;8.334;2022-12-18T05:35:02;73.78;;;49.10;;
29688;SDS011;16600;47.444;8.334;2022-12-18T05:37:28;73.85;;;52.35;;
29688;SDS011;16600;47.444;8.334;2022-12-18T05:39:54;70.97;;;49.97;;
29688;SDS011;16600;47.444;8.334;2022-12-18T05:42:20;74.38;;;52.38;;
29688;SDS011;16600;47.444;8.334;2022-12-18T05:47:12;75.43;;;50.35;;
29688;SDS011;16600;47.444;8.334;2022-12-18T05:49:38;87.72;;;54.63;;
29688;SDS011;16600;47.444;8.334;2022-12-18T05:52:04;78.47;;;51.65;;
29688;SDS011;16600;47.444;8.334;2022-12-18T05:54:30;78.38;;;50.42;;
29688;SDS011;16600;47.444;8.334;2022-12-18T05:56:56;89.10;;;52.47;;
29688;SDS011;16600;47.444;8.334;2022-12-18T05:59:25;75.53;;;52.67;;
29688;SDS011;16600;47.444;8.334;2022-12-18T06:01:51;73.78;;;50.90;;
29688;SDS011;16600;47.444;8.334;2022-12-18T06:04:17;73.70;;;50.22;;
29688;SDS011;16600;47.444;8.334;2022-12-18T06:06:44;78.05;;;52.13;;
29688;SDS011;16600;47.444;8.334;2022-12-18T06:09:10;84.72;;;51.83;;
29688;SDS011;16600;47.444;8.334;2022-12-18T06:11:39;89.20;;;54.35;;
29688;SDS011;16600;47.444;8.334;2022-12-18T06:14:05;79.78;;;52.45;;
29688;SDS011;16600;47.444;8.334;2022-12-18T06:16:34;77.53;;;51.88;;
29688;SDS011;16600;47.444;8.334;2022-12-18T06:19:01;79.70;;;52.30;;
29688;SDS011;16600;47.444;8.334;2022-12-18T06:21:28;83.20;;;53.40;;
29688;SDS011;16600;47.444;8.334;2022-12-18T06:23:54;77.70;;;51.65;;
29688;SDS011;16600;47.444;8.334;2022-12-18T06:26:20;80.03;;;54.47;;
29688;SDS011;16600;47.444;8.334;2022-12-18T06:28:46;80.80;;;54.10;;
29688;SDS011;16600;47.444;8.334;2022-12-18T06:31:12;95.82;;;53.10;;
29688;SDS011;16600;47.444;8.334;2022-12-18T06:33:38;76.78;;;52.25;;
29688;SDS011;16600;47.444;8.334;2022-12-18T06:36:05;73.45;;;51.75;;
29688;SDS011;16600;47.444;8.334;2022-12-18T06:38:33;78.47;;;52.08;;
29688;SDS011;16600;47.444;8.334;2022-12-18T06:40:59;80.97;;;53.13;;
29688;SDS011;16600;47.444;8.334;2022-12-18T06:43:25;86.97;;;53.55;;
29688;SDS011;16600;47.444;8.334;2022-12-18T06:45:57;83.00;;;52.60;;
29688;SDS011;16600;47.444;8.334;2022-12-18T06:48:26;75.18;;;53.67;;
29688;SDS011;16600;47.444;8.334;2022-12-18T06:50:52;83.93;;;53.47;;
29688;SDS011;16600;47.444;8.334;2022-12-18T06:53:18;86.80;;;54.88;;
29688;SDS011;16600;47.444;8.334;2022-12-18T06:55:44;80.10;;;52.92;;
29688;SDS011;16600;47.444;8.334;2022-12-18T06:58:10;75.03;;;51.13;;
29688;SDS011;16600;47.444;8.334;2022-12-18T07:00:39;79.00;;;53.20;;
29688;SDS011;16600;47.444;8.334;2022-12-18T07:03:05;84.22;;;55.40;;
29688;SDS011;16600;47.444;8.334;2022-12-18T07:05:34;84.57;;;54.20;;
29688;SDS011;16600;47.444;8.334;2022-12-18T07:08:04;82.18;;;53.10;;
29688;SDS011;16600;47.444;8.334;2022-12-18T07:12:56;89.85;;;49.97;;
29688;SDS011;16600;47.444;8.334;2022-12-18T07:17:48;75.70;;;49.63;;
29688;SDS011;16600;47.444;8.334;2022-12-18T07:22:39;82.70;;;50.72;;
29688;SDS011;16600;47.444;8.334;2022-12-18T07:25:05;77.10;;;53.05;;
29688;SDS011;16600;47.444;8.334;2022-12-18T07:27:32;74.47;;;52.78;;
29688;SDS011;16600;47.444;8.334;2022-12-18T07:29:58;77.57;;;50.38;;
29688;SDS011;16600;47.444;8.334;2022-12-18T07:34:49;87.82;;;53.08;;
29688;SDS011;16600;47.444;8.334;2022-12-18T07:37:15;77.93;;;49.75;;
29688;SDS011;16600;47.444;8.334;2022-12-18T07:42:07;70.70;;;48.30;;
29688;SDS011;16600;47.444;8.334;2022-12-18T07:44:51;86.60;;;50.63;;
29688;SDS011;16600;47.444;8.334;2022-12-18T07:47:17;80.68;;;51.22;;
29688;SDS011;16600;47.444;8.334;2022-12-18T07:49:44;78.18;;;50.25;;
29688;SDS011;16600;47.444;8.334;2022-12-18T07:52:10;63.80;;;44.65;;
29688;SDS011;16600;47.444;8.334;2022-12-18T07:54:37;82.60;;;52.22;;
29688;SDS011;16600;47.444;8.334;2022-12-18T07:57:04;80.57;;;50.92;;
29688;SDS011;16600;47.444;8.334;2022-12-18T08:01:55;82.53;;;52.13;;
29688;SDS011;16600;47.444;8.334;2022-12-18T08:04:21;73.20;;;51.42;;
29688;SDS011;16600;47.444;8.334;2022-12-18T08:06:48;81.40;;;53.42;;
29688;SDS011;16600;47.444;8.334;2022-12-18T08:09:14;77.55;;;49.65;;
29688;SDS011;16600;47.444;8.334;2022-12-18T08:11:40;68.80;;;45.92;;
29688;SDS011;16600;47.444;8.334;2022-12-18T08:14:06;63.72;;;45.20;;
29688;SDS011;16600;47.444;8.334;2022-12-18T08:18:58;66.53;;;41.13;;
29688;SDS011;16600;47.444;8.334;2022-12-18T08:23:50;74.35;;;47.95;;
29688;SDS011;16600;47.444;8.334;2022-12-18T08:26:19;77.80;;;49.40;;
29688;SDS011;16600;47.444;8.334;2022-12-18T08:28:45;75.90;;;44.25;;
29688;SDS011;16600;47.444;8.334;2022-12-18T08:31:12;49.70;;;37.22;;
29688;SDS011;16600;47.444;8.334;2022-12-18T08:33:38;55.28;;;38.13;;
29688;SDS011;16600;47.444;8.334;2022-12-18T08:36:05;56.92;;;37.00;;
29688;SDS011;16600;47.444;8.334;2022-12-18T08:38:32;57.10;;;37.22;;
29688;SDS011;16600;47.444;8.334;2022-12-18T08:40:58;54.03;;;35.33;;
29688;SDS011;16600;47.444;8.334;2022-12-18T08:43:25;64.10;;;36.33;;
29688;SDS011;16600;47.444;8.334;2022-12-18T08:46:10;55.00;;;37.75;;
29688;SDS011;16600;47.444;8.334;2022-12-18T08:48:39;65.35;;;45.53;;
29688;SDS011;16600;47.444;8.334;2022-12-18T08:51:05;67.85;;;45.28;;
29688;SDS011;16600;47.444;8.334;2022-12-18T08:53:40;67.97;;;43.40;;
29688;SDS011;16600;47.444;8.334;2022-12-18T08:56:12;52.47;;;37.25;;
29688;SDS011;16600;47.444;8.334;2022-12-18T08:58:38;60.72;;;35.35;;
29688;SDS011;16600;47.444;8.334;2022-12-18T09:01:07;57.45;;;34.10;;
29688;SDS011;16600;47.444;8.334;2022-12-18T09:03:37;45.83;;;32.03;;
29688;SDS011;16600;47.444;8.334;2022-12-18T09:06:04;53.05;;;34.10;;
29688;SDS011;16600;47.444;8.334;2022-12-18T09:08:30;50.20;;;33.55;;
29688;SDS011;16600;47.444;8.334;2022-12-18T09:10:59;51.25;;;35.08;;
29688;SDS011;16600;47.444;8.334;2022-12-18T09:13:26;53.97;;;33.20;;
29688;SDS011;16600;47.444;8.334;2022-12-18T09:15:52;47.17;;;33.08;;
29688;SDS011;16600;47.444;8.334;2022-12-18T09:18:22;50.42;;;34.45;;
29688;SDS011;16600;47.444;8.334;2022-12-18T09:20:48;43.67;;;31.85;;
29688;SDS011;16600;47.444;8.334;2022-12-18T09:23:15;50.67;;;31.65;;
29688;SDS011;16600;47.444;8.334;2022-12-18T09:25:41;50.00;;;31.90;;
29688;SDS011;16600;47.444;8.334;2022-12-18T09:28:14;50.22;;;31.23;;
29688;SDS011;16600;47.444;8.334;2022-12-18T09:30:43;46.38;;;32.00;;
29688;SDS011;16600;47.444;8.334;2022-12-18T09:33:09;46.60;;;31.25;;
29688;SDS011;16600;47.444;8.334;2022-12-18T09:38:04;45.15;;;29.95;;
29688;SDS011;16600;47.444;8.334;2022-12-18T09:42:59;48.35;;;29.77;;
29688;SDS011;16600;47.444;8.334;2022-12-18T09:45:27;45.17;;;30.00;;
29688;SDS011;16600;47.444;8.334;2022-12-18T09:47:53;48.70;;;28.67;;
29688;SDS011;16600;47.444;8.334;2022-12-18T09:55:19;42.13;;;28.38;;
29688;SDS011;16600;47.444;8.334;2022-12-18T10:00:35;41.30;;;29.35;;
29688;SDS011;16600;47.444;8.334;2022-12-18T10:03:11;43.08;;;28.60;;
29688;SDS011;16600;47.444;8.334;2022-12-18T10:10:47;43.40;;;29.08;;
29688;SDS011;16600;47.444;8.334;2022-12-18T10:13:31;40.60;;;29.10;;
29688;SDS011;16600;47.444;8.334;2022-12-18T10:18:29;47.42;;;29.13;;
29688;SDS011;16600;47.444;8.334;2022-12-18T10:21:18;48.65;;;28.70;;
29688;SDS011;16600;47.444;8.334;2022-12-18T10:26:17;41.22;;;29.70;;
29688;SDS011;16600;47.444;8.334;2022-12-18T10:28:43;39.28;;;26.98;;
29688;SDS011;16600;47.444;8.334;2022-12-18T10:31:16;38.17;;;27.45;;
29688;SDS011;16600;47.444;8.334;2022-12-18T10:33:42;43.92;;;29.67;;
29688;SDS011;16600;47.444;8.334;2022-12-18T10:36:09;48.95;;;29.67;;
29688;SDS011;16600;47.444;8.334;2022-12-18T10:38:35;51.88;;;31.40;;
29688;SDS011;16600;47.444;8.334;2022-12-18T10:41:02;40.17;;;27.98;;
29688;SDS011;16600;47.444;8.334;2022-12-18T10:43:29;43.97;;;29.80;;
29688;SDS011;16600;47.444;8.334;2022-12-18T10:48:27;52.78;;;29.02;;
29688;SDS011;16600;47.444;8.334;2022-12-18T10:50:53;46.65;;;27.30;;
29688;SDS011;16600;47.444;8.334;2022-12-18T10:53:27;42.78;;;26.42;;
29688;SDS011;16600;47.444;8.334;2022-12-18T10:55:54;37.08;;;25.73;;
29688;SDS011;16600;47.444;8.334;2022-12-18T10:58:24;44.08;;;26.65;;
29688;SDS011;16600;47.444;8.334;2022-12-18T11:03:01;35.90;;;26.27;;
29688;SDS011;16600;47.444;8.334;2022-12-18T11:05:33;39.70;;;27.10;;
29688;SDS011;16600;47.444;8.334;2022-12-18T11:08:02;45.08;;;25.65;;
29688;SDS011;16600;47.444;8.334;2022-12-18T11:15:21;38.67;;;27.05;;
29688;SDS011;16600;47.444;8.334;2022-12-18T11:17:49;37.85;;;26.60;;
29688;SDS011;16600;47.444;8.334;2022-12-18T11:22:57;34.58;;;25.67;;
29688;SDS011;16600;47.444;8.334;2022-12-18T11:25:27;35.83;;;24.83;;
29688;SDS011;16600;47.444;8.334;2022-12-18T11:27:56;37.10;;;26.25;;
29688;SDS011;16600;47.444;8.334;2022-12-18T11:30:33;37.70;;;24.75;;
29688;SDS011;16600;47.444;8.334;2022-12-18T11:33:01;41.50;;;24.88;;
29688;SDS011;16600;47.444;8.334;2022-12-18T11:40:44;41.45;;;26.13;;
29688;SDS011;16600;47.444;8.334;2022-12-18T11:43:26;38.70;;;25.10;;
29688;SDS011;16600;47.444;8.334;2022-12-18T11:45:53;45.08;;;25.33;;
29688;SDS011;16600;47.444;8.334;2022-12-18T11:50:58;41.80;;;23.00;;
29688;SDS011;16600;47.444;8.334;2022-12-18T11:53:26;31.85;;;21.88;;
29688;SDS011;16600;47.444;8.334;2022-12-18T11:58:43;29.52;;;22.20;;
29688;SDS011;16600;47.444;8.334;2022-12-18T12:03:53;29.83;;;23.00;;
29688;SDS011;16600;47.444;8.334;2022-12-18T12:06:43;35.10;;;23.70;;
29688;SDS011;16600;47.444;8.334;2022-12-18T12:09:16;34.00;;;22.90;;
29688;SDS011;16600;47.444;8.334;2022-12-18T12:11:48;37.67;;;22.45;;
29688;SDS011;16600;47.444;8.334;2022-12-18T12:19:15;35.05;;;21.75;;
29688;SDS011;16600;47.444;8.334;2022-12-18T12:22:00;33.35;;;22.10;;
29688;SDS011;16600;47.444;8.334;2022-12-18T12:29:31;28.67;;;20.98;;
29688;SDS011;16600;47.444;8.334;2022-12-18T12:32:12;28.50;;;20.55;;
29688;SDS011;16600;47.444;8.334;2022-12-18T12:37:19;31.77;;;22.08;;
29688;SDS011;16600;47.444;8.334;2022-12-18T12:39:48;32.05;;;23.48;;
29688;SDS011;16600;47.444;8.334;2022-12-18T12:42:23;30.95;;;22.33;;
29688;SDS011;16600;47.444;8.334;2022-12-18T12:45:14;33.65;;;20.65;;
29688;SDS011;16600;47.444;8.334;2022-12-18T12:47:42;39.42;;;25.10;;
29688;SDS011;16600;47.444;8.334;2022-12-18T12:50:18;29.98;;;23.45;;
29688;SDS011;16600;47.444;8.334;2022-12-18T12:52:47;39.85;;;23.48;;
29688;SDS011;16600;47.444;8.334;2022-12-18T12:55:27;43.17;;;24.10;;
29688;SDS011;16600;47.444;8.334;2022-12-18T13:00:20;31.42;;;24.08;;
29688;SDS011;16600;47.444;8.334;2022-12-18T13:03:04;34.38;;;25.60;;
29688;SDS011;16600;47.444;8.334;2022-12-18T13:08:27;44.42;;;27.08;;
29688;SDS011;16600;47.444;8.334;2022-12-18T13:10:53;42.90;;;27.85;;
29688;SDS011;16600;47.444;8.334;2022-12-18T13:13:50;34.08;;;25.23;;
29688;SDS011;16600;47.444;8.334;2022-12-18T13:16:20;38.35;;;26.23;;
29688;SDS011;16600;47.444;8.334;2022-12-18T13:18:53;34.35;;;24.85;;
29688;SDS011;16600;47.444;8.334;2022-12-18T13:21:24;31.55;;;24.83;;
29688;SDS011;16600;47.444;8.334;2022-12-18T13:23:52;49.42;;;24.83;;
29688;SDS011;16600;47.444;8.334;2022-12-18T13:31:13;38.10;;;26.00;;
29688;SDS011;16600;47.444;8.334;2022-12-18T13:33:45;38.25;;;27.88;;
29688;SDS011;16600;47.444;8.334;2022-12-18T13:36:16;46.15;;;26.73;;
29688;SDS011;16600;47.444;8.334;2022-12-18T13:38:43;45.35;;;25.98;;
29688;SDS011;16600;47.444;8.334;2022-12-18T13:46:02;32.17;;;24.55;;
29688;SDS011;16600;47.444;8.334;2022-12-18T13:48:33;35.00;;;25.73;;
29688;SDS011;16600;47.444;8.334;2022-12-18T13:51:03;41.00;;;28.48;;
29688;SDS011;16600;47.444;8.334;2022-12-18T13:53:34;41.63;;;27.70;;
29688;SDS011;16600;47.444;8.334;2022-12-18T13:56:02;49.85;;;28.70;;
29688;SDS011;16600;47.444;8.334;2022-12-18T13:58:28;39.63;;;26.30;;
29688;SDS011;16600;47.444;8.334;2022-12-18T14:00:57;44.13;;;27.35;;
29688;SDS011;16600;47.444;8.334;2022-12-18T14:03:28;39.20;;;27.10;;
29688;SDS011;16600;47.444;8.334;2022-12-18T14:06:06;45.30;;;28.02;;
29688;SDS011;16600;47.444;8.334;2022-12-18T14:08:42;42.63;;;29.35;;
29688;SDS011;16600;47.444;8.334;2022-12-18T14:11:18;55.25;;;30.35;;
29688;SDS011;16600;47.444;8.334;2022-12-18T14:13:48;39.05;;;27.35;;
29688;SDS011;16600;47.444;8.334;2022-12-18T14:16:15;39.92;;;29.67;;
29688;SDS011;16600;47.444;8.334;2022-12-18T14:18:44;41.28;;;27.25;;
29688;SDS011;16600;47.444;8.334;2022-12-18T14:21:18;43.47;;;29.10;;
29688;SDS011;16600;47.444;8.334;2022-12-18T14:23:45;38.92;;;27.77;;
29688;SDS011;16600;47.444;8.334;2022-12-18T14:26:21;45.65;;;29.98;;
29688;SDS011;16600;47.444;8.334;2022-12-18T14:28:48;39.35;;;26.73;;
29688;SDS011;16600;47.444;8.334;2022-12-18T14:31:20;41.70;;;27.67;;
29688;SDS011;16600;47.444;8.334;2022-12-18T14:33:46;44.45;;;27.50;;
29688;SDS011;16600;47.444;8.334;2022-12-18T14:36:15;40.22;;;26.92;;
29688;SDS011;16600;47.444;8.334;2022-12-18T14:38:41;40.30;;;27.55;;
29688;SDS011;16600;47.444;8.334;2022-12-18T14:41:13;46.03;;;28.13;;
29688;SDS011;16600;47.444;8.334;2022-12-18T14:43:43;42.25;;;28.58;;
29688;SDS011;16600;47.444;8.334;2022-12-18T14:46:26;49.72;;;29.65;;
29688;SDS011;16600;47.444;8.334;2022-12-18T14:48:53;46.95;;;29.85;;
29688;SDS011;16600;47.444;8.334;2022-12-18T14:51:20;40.50;;;29.23;;
29688;SDS011;16600;47.444;8.334;2022-12-18T14:53:48;46.58;;;30.50;;
29688;SDS011;16600;47.444;8.334;2022-12-18T14:56:19;45.75;;;30.65;;
29688;SDS011;16600;47.444;8.334;2022-12-18T14:58:47;45.40;;;29.13;;
29688;SDS011;16600;47.444;8.334;2022-12-18T15:01:21;47.55;;;29.88;;
29688;SDS011;16600;47.444;8.334;2022-12-18T15:03:48;50.88;;;31.83;;
29688;SDS011;16600;47.444;8.334;2022-12-18T15:06:15;50.13;;;30.40;;
29688;SDS011;16600;47.444;8.334;2022-12-18T15:08:41;49.33;;;32.80;;
29688;SDS011;16600;47.444;8.334;2022-12-18T15:13:52;59.53;;;32.92;;
29688;SDS011;16600;47.444;8.334;2022-12-18T15:16:18;49.22;;;33.20;;
29688;SDS011;16600;47.444;8.334;2022-12-18T15:18:44;52.92;;;34.22;;
29688;SDS011;16600;47.444;8.334;2022-12-18T15:21:14;56.67;;;33.15;;
29688;SDS011;16600;47.444;8.334;2022-12-18T15:26:13;56.03;;;35.13;;
29688;SDS011;16600;47.444;8.334;2022-12-18T15:28:44;59.83;;;34.53;;
29688;SDS011;16600;47.444;8.334;2022-12-18T15:33:43;51.20;;;31.67;;
29688;SDS011;16600;47.444;8.334;2022-12-18T15:36:15;50.00;;;33.30;;
29688;SDS011;16600;47.444;8.334;2022-12-18T15:38:46;57.58;;;35.35;;
29688;SDS011;16600;47.444;8.334;2022-12-18T15:41:17;53.55;;;34.25;;
29688;SDS011;16600;47.444;8.334;2022-12-18T15:43:47;56.47;;;36.47;;
29688;SDS011;16600;47.444;8.334;2022-12-18T15:46:15;53.25;;;34.90;;
29688;SDS011;16600;47.444;8.334;2022-12-18T15:48:42;58.63;;;34.70;;
29688;SDS011;16600;47.444;8.334;2022-12-18T15:51:16;50.75;;;33.33;;
29688;SDS011;16600;47.444;8.334;2022-12-18T15:53:43;47.10;;;32.65;;
29688;SDS011;16600;47.444;8.334;2022-12-18T15:56:10;59.03;;;36.45;;
29688;SDS011;16600;47.444;8.334;2022-12-18T15:58:55;56.60;;;33.05;;
29688;SDS011;16600;47.444;8.334;2022-12-18T16:01:21;50.40;;;33.97;;
29688;SDS011;16600;47.444;8.334;2022-12-18T16:03:48;56.22;;;35.47;;
29688;SDS011;16600;47.444;8.334;2022-12-18T16:06:15;52.92;;;36.17;;
29688;SDS011;16600;47.444;8.334;2022-12-18T16:08:41;55.75;;;36.85;;
29688;SDS011;16600;47.444;8.334;2022-12-18T16:14:16;67.78;;;39.03;;
29688;SDS011;16600;47.444;8.334;2022-12-18T16:19:08;61.58;;;34.58;;
29688;SDS011;16600;47.444;8.334;2022-12-18T16:24:00;55.67;;;37.13;;
29688;SDS011;16600;47.444;8.334;2022-12-18T16:26:26;57.70;;;38.40;;
29688;SDS011;16600;47.444;8.334;2022-12-18T16:28:52;58.55;;;37.42;;
29688;SDS011;16600;47.444;8.334;2022-12-18T16:31:19;54.70;;;37.28;;
29688;SDS011;16600;47.444;8.334;2022-12-18T16:33:46;52.05;;;35.95;;
29688;SDS011;16600;47.444;8.334;2022-12-18T16:36:13;57.60;;;37.72;;
29688;SDS011;16600;47.444;8.334;2022-12-18T16:38:41;56.88;;;37.92;;
29688;SDS011;16600;47.444;8.334;2022-12-18T16:41:18;58.55;;;37.47;;
29688;SDS011;16600;47.444;8.334;2022-12-18T16:43:59;59.00;;;36.53;;
29688;SDS011;16600;47.444;8.334;2022-12-18T16:46:25;53.38;;;35.40;;
29688;SDS011;16600;47.444;8.334;2022-12-18T16:48:51;55.38;;;38.15;;
29688;SDS011;16600;47.444;8.334;2022-12-18T16:51:20;68.03;;;38.58;;
29688;SDS011;16600;47.444;8.334;2022-12-18T16:53:46;56.83;;;37.90;;
29688;SDS011;16600;47.444;8.334;2022-12-18T16:56:12;51.78;;;36.30;;
29688;SDS011;16600;47.444;8.334;2022-12-18T16:58:38;52.55;;;37.17;;
29688;SDS011;16600;47.444;8.334;2022-12-18T17:03:04;64.60;;;38.47;;